Terminal Aerodrome Forecast
Issued by NWS

Current Version | Previous Version | Text Only | Print | Product List | Glossary On
Versions: 1 2 3 4 5 6 7 8 9 10 11 12 13 14 15 16 17 18 19 20 21
000
FTUS45 KTFX 281100
TAFHLN
TAF
KHLN 281121Z 2812/2912 VRB05KT P6SM VCSH BKN070 WS020/26035KT
     FM282000 25009KT P6SM VCSH SCT050 OVC070
     FM290500 26015G25KT P6SM VCSH OVC050 PROB30 2907/2912 -SN
      OVC030=

USA.gov is the U.S. government's official web portal to all federal, state and local government web resources and services.